createdAt,value
2024-03-11T00:00:55.940Z,3.31
2024-03-11T00:01:58.739Z,2.56
2024-03-11T00:03:02.139Z,1.00
2024-03-11T00:04:05.006Z,3.69
2024-03-11T00:05:08.102Z,2.69
2024-03-11T00:06:11.225Z,3.12
2024-03-11T00:07:14.166Z,3.56
2024-03-11T00:08:17.054Z,3.06
2024-03-11T00:09:20.108Z,2.81
2024-03-11T00:10:22.989Z,2.56
2024-03-11T00:11:26.028Z,2.44
2024-03-11T00:12:29.003Z,2.56
2024-03-11T00:13:31.870Z,2.69
2024-03-11T00:14:34.989Z,2.94
2024-03-11T00:15:38.598Z,2.81
2024-03-11T00:16:41.536Z,2.94
2024-03-11T00:17:44.411Z,3.12
2024-03-11T00:18:47.248Z,2.06
2024-03-11T00:19:50.032Z,1.81
2024-03-11T00:20:52.925Z,3.25
2024-03-11T00:21:56.264Z,2.00
2024-03-11T00:22:59.153Z,3.00
2024-03-11T00:24:01.928Z,2.50
2024-03-11T00:25:08.052Z,2.25
2024-03-11T00:26:11.620Z,1.94
2024-03-11T00:27:14.458Z,2.75
2024-03-11T00:28:17.330Z,2.44
2024-03-11T00:29:20.645Z,2.56
2024-03-11T00:30:23.629Z,2.12
2024-03-11T00:31:27.930Z,3.37
2024-03-11T00:32:31.215Z,2.56
2024-03-11T00:33:34.128Z,7.69
2024-03-11T00:34:37.099Z,6.37
2024-03-11T00:35:40.294Z,13.69
2024-03-11T00:36:43.475Z,13.06
2024-03-11T00:37:46.605Z,5.75
2024-03-11T00:38:49.537Z,0.06
2024-03-11T00:39:52.409Z,8.19
2024-03-11T00:40:55.344Z,6.56
2024-03-11T00:41:58.178Z,4.00
2024-03-11T00:43:01.068Z,3.19
2024-03-11T00:44:04.187Z,3.31
2024-03-11T00:45:07.538Z,1.62
2024-03-11T00:46:10.708Z,3.81
2024-03-11T00:47:13.553Z,4.19
2024-03-11T00:48:16.566Z,4.75
2024-03-11T00:49:19.803Z,5.50
2024-03-11T00:50:22.889Z,3.69
2024-03-11T00:51:26.040Z,4.56
2024-03-11T00:52:28.887Z,3.69
2024-03-11T00:53:32.023Z,3.69
2024-03-11T00:54:34.871Z,4.44
2024-03-11T00:55:37.752Z,3.25
2024-03-11T00:56:40.924Z,3.69
2024-03-11T00:57:43.816Z,3.75
2024-03-11T00:58:46.800Z,4.44
2024-03-11T00:59:49.755Z,3.69
2024-03-11T01:00:52.918Z,4.44
2024-03-11T01:01:55.757Z,4.31
2024-03-11T01:02:58.571Z,3.37
2024-03-11T01:04:01.453Z,2.56
2024-03-11T01:05:05.285Z,3.81
2024-03-11T01:06:08.309Z,3.94
2024-03-11T01:07:20.153Z,3.06
2024-03-11T01:08:16.158Z,2.62
2024-03-11T01:09:19.082Z,3.62
2024-03-11T01:10:22.007Z,3.06
2024-03-11T01:11:24.961Z,3.37
2024-03-11T01:12:28.036Z,2.62
2024-03-11T01:13:30.979Z,3.25
2024-03-11T01:14:33.822Z,3.50
2024-03-11T01:15:36.827Z,3.44
2024-03-11T01:16:39.707Z,2.56
2024-03-11T01:17:42.995Z,1.69
2024-03-11T01:18:46.111Z,2.81
2024-03-11T01:19:48.984Z,3.44
2024-03-11T01:20:52.110Z,3.50
2024-03-11T01:21:55.087Z,3.06
2024-03-11T01:22:57.928Z,5.25
2024-03-11T01:24:00.773Z,4.69
2024-03-11T01:25:03.769Z,5.50
2024-03-11T01:26:07.122Z,6.75
2024-03-11T01:27:10.043Z,5.25
2024-03-11T01:28:12.923Z,8.25
2024-03-11T01:29:16.082Z,3.62
2024-03-11T01:30:18.954Z,13.25
2024-03-11T01:31:21.849Z,10.19
2024-03-11T01:32:24.788Z,6.56
2024-03-11T01:33:27.718Z,13.44
2024-03-11T01:34:30.757Z,13.44
2024-03-11T01:35:33.709Z,9.88
2024-03-11T01:36:36.605Z,16.56
2024-03-11T01:37:39.463Z,17.00
2024-03-11T01:38:42.402Z,22.80
2024-03-11T01:39:45.388Z,21.94
2024-03-11T01:40:48.468Z,11.00
2024-03-11T01:41:54.239Z,24.07
2024-03-11T01:42:57.220Z,18.40
2024-03-11T01:44:00.132Z,24.47
2024-03-11T01:45:03.813Z,15.44
2024-03-11T01:46:07.891Z,13.67
2024-03-11T01:47:12.244Z,13.33
2024-03-11T01:48:15.245Z,2.81
2024-03-11T01:49:18.192Z,3.31
2024-03-11T01:50:22.340Z,3.62
2024-03-11T01:51:25.282Z,2.94
2024-03-11T01:52:32.452Z,3.06
2024-03-11T01:53:35.321Z,2.25
2024-03-11T01:54:39.033Z,4.50
2024-03-11T01:55:42.246Z,4.06
2024-03-11T01:56:45.953Z,7.81
2024-03-11T01:57:49.568Z,5.00
2024-03-11T01:58:52.508Z,3.19
2024-03-11T01:59:55.382Z,4.56
2024-03-11T02:00:58.442Z,4.44
2024-03-11T02:02:01.416Z,3.50
2024-03-11T02:03:04.392Z,3.00
2024-03-11T02:04:07.333Z,3.25
2024-03-11T02:05:10.892Z,2.12
2024-03-11T02:06:13.957Z,2.31
2024-03-11T02:07:16.949Z,2.44
2024-03-11T02:08:19.768Z,2.25
2024-03-11T02:09:22.612Z,2.62
2024-03-11T02:10:25.739Z,2.12
2024-03-11T02:11:28.743Z,1.19
2024-03-11T02:12:31.771Z,2.81
2024-03-11T02:13:34.552Z,2.44
2024-03-11T02:14:37.446Z,3.94
2024-03-11T02:15:40.369Z,2.56
2024-03-11T02:16:43.314Z,2.56
2024-03-11T02:17:47.019Z,2.87
2024-03-11T02:18:51.104Z,2.75
2024-03-11T02:19:54.026Z,2.50
2024-03-11T02:20:56.941Z,2.44
2024-03-11T02:22:00.126Z,2.37
2024-03-11T02:23:04.480Z,1.62
2024-03-11T02:24:07.562Z,2.31
2024-03-11T02:25:10.510Z,2.69
2024-03-11T02:26:13.566Z,2.37
2024-03-11T02:27:16.441Z,1.69
2024-03-11T02:28:19.262Z,0.69
2024-03-11T02:29:22.231Z,2.62
2024-03-11T02:30:25.318Z,2.62
2024-03-11T02:31:29.616Z,2.44
2024-03-11T02:32:32.591Z,2.56
2024-03-11T02:33:35.669Z,2.87
2024-03-11T02:34:38.693Z,2.50
2024-03-11T02:35:41.690Z,2.06
2024-03-11T02:36:45.650Z,2.31
2024-03-11T02:37:49.037Z,1.94
2024-03-11T02:38:52.067Z,2.06
2024-03-11T02:39:54.924Z,2.75
2024-03-11T02:40:58.256Z,3.00
2024-03-11T02:42:01.208Z,2.81
2024-03-11T02:43:04.103Z,2.25
2024-03-11T02:44:07.108Z,1.75
2024-03-11T02:45:11.484Z,2.56
2024-03-11T02:46:15.158Z,1.37
2024-03-11T02:47:18.095Z,2.25
2024-03-11T02:48:21.050Z,2.44
2024-03-11T02:49:23.825Z,1.81
2024-03-11T02:50:26.976Z,2.37
2024-03-11T02:51:29.954Z,2.19
2024-03-11T02:52:33.449Z,2.12
2024-03-11T02:53:36.487Z,2.94
2024-03-11T02:54:39.428Z,2.37
2024-03-11T02:55:42.301Z,2.50
2024-03-11T02:56:45.391Z,0.56
2024-03-11T02:57:48.467Z,1.94
2024-03-11T02:58:51.446Z,2.69
2024-03-11T02:59:54.372Z,2.37
2024-03-11T03:00:57.357Z,2.12
2024-03-11T03:02:00.213Z,2.94
2024-03-11T03:03:03.237Z,2.56
2024-03-11T03:04:06.171Z,1.69
2024-03-11T03:05:10.661Z,1.56
2024-03-11T03:06:13.996Z,2.12
2024-03-11T03:07:17.714Z,2.31
2024-03-11T03:08:20.660Z,2.62
2024-03-11T03:09:23.544Z,2.56
2024-03-11T03:10:26.534Z,1.69
2024-03-11T03:11:29.760Z,3.31
2024-03-11T03:12:32.691Z,2.81
2024-03-11T03:13:35.541Z,0.69
2024-03-11T03:14:38.462Z,0.00
2024-03-11T03:15:41.471Z,2.19
2024-03-11T03:16:44.786Z,2.25
2024-03-11T03:17:47.936Z,3.00
2024-03-11T03:18:50.893Z,3.19
2024-03-11T03:19:53.973Z,2.31
2024-03-11T03:20:57.136Z,2.81
2024-03-11T03:22:00.003Z,3.37
2024-03-11T03:23:02.973Z,3.25
2024-03-11T03:24:06.025Z,3.62
2024-03-11T03:25:08.987Z,2.19
2024-03-11T03:26:12.473Z,2.19
2024-03-11T03:27:15.264Z,4.06
2024-03-11T03:28:18.069Z,2.75
2024-03-11T03:29:20.993Z,3.50
2024-03-11T03:30:24.071Z,3.25
2024-03-11T03:31:27.000Z,2.50
2024-03-11T03:32:30.050Z,2.56
2024-03-11T03:33:33.631Z,2.50
2024-03-11T03:34:36.453Z,2.62
2024-03-11T03:35:39.342Z,2.44
2024-03-11T03:36:42.331Z,2.75
2024-03-11T03:37:45.268Z,2.37
2024-03-11T03:38:48.228Z,3.62
2024-03-11T03:39:51.175Z,4.06
2024-03-11T03:40:54.041Z,3.44
2024-03-11T03:41:56.880Z,3.37
2024-03-11T03:42:59.718Z,3.62
2024-03-11T03:44:03.224Z,2.50
2024-03-11T03:45:06.492Z,3.69
2024-03-11T03:46:09.960Z,2.94
2024-03-11T03:47:12.975Z,3.25
2024-03-11T03:48:15.874Z,3.50
2024-03-11T03:49:18.749Z,2.62
2024-03-11T03:50:21.841Z,2.62
2024-03-11T03:51:24.774Z,3.12
2024-03-11T03:52:27.729Z,3.37
2024-03-11T03:53:30.844Z,3.69
2024-03-11T03:54:33.720Z,3.37
2024-03-11T03:55:36.673Z,3.56
2024-03-11T03:56:39.843Z,4.06
2024-03-11T03:57:43.358Z,2.62
2024-03-11T03:58:46.288Z,2.37
2024-03-11T03:59:52.157Z,3.19
2024-03-11T04:00:55.265Z,3.25
2024-03-11T04:01:58.160Z,3.31
2024-03-11T04:03:01.059Z,2.94
2024-03-11T04:04:04.060Z,2.50
2024-03-11T04:05:06.958Z,3.75
2024-03-11T04:06:10.741Z,3.31
2024-03-11T04:07:15.389Z,3.81
2024-03-11T04:08:18.333Z,3.31
2024-03-11T04:09:21.281Z,4.12
2024-03-11T04:10:24.337Z,4.19
2024-03-11T04:11:27.245Z,9.19
2024-03-11T04:12:30.088Z,11.44
2024-03-11T04:13:32.963Z,5.37
2024-03-11T04:14:35.942Z,10.47
2024-03-11T04:15:39.325Z,9.88
2024-03-11T04:16:42.255Z,7.00
2024-03-11T04:17:45.733Z,7.25
2024-03-11T04:18:48.743Z,5.87
2024-03-11T04:19:51.686Z,9.00
2024-03-11T04:20:54.663Z,3.62
2024-03-11T04:21:57.627Z,2.44
2024-03-11T04:23:00.569Z,4.12
2024-03-11T04:24:03.480Z,3.37
2024-03-11T04:25:06.574Z,4.44
2024-03-11T04:26:09.965Z,4.87
2024-03-11T04:27:16.762Z,4.69
2024-03-11T04:28:19.695Z,4.31
2024-03-11T04:29:22.609Z,3.75
2024-03-11T04:30:32.132Z,3.87
2024-03-11T04:31:35.027Z,5.12
2024-03-11T04:32:37.885Z,5.12
2024-03-11T04:33:41.589Z,4.31
2024-03-11T04:34:44.477Z,4.31
2024-03-11T04:35:47.457Z,4.37
2024-03-11T04:36:50.407Z,4.12
2024-03-11T04:37:54.811Z,4.00
2024-03-11T04:38:57.646Z,4.69
2024-03-11T04:40:00.478Z,3.44
2024-03-11T04:41:03.399Z,4.31
2024-03-11T04:42:06.335Z,4.94
2024-03-11T04:43:09.323Z,2.81
2024-03-11T04:44:12.248Z,5.00
2024-03-11T04:45:15.221Z,4.19
2024-03-11T04:46:18.199Z,3.87
2024-03-11T04:47:21.073Z,4.44
2024-03-11T04:48:23.959Z,4.37
2024-03-11T04:49:27.106Z,5.00
2024-03-11T04:50:31.315Z,4.31
2024-03-11T04:51:34.305Z,4.69
2024-03-11T04:52:37.182Z,4.31
2024-03-11T04:53:40.057Z,10.44
2024-03-11T04:54:43.037Z,4.50
2024-03-11T04:55:45.976Z,5.94
2024-03-11T04:56:48.948Z,8.00
2024-03-11T04:57:51.843Z,5.37
2024-03-11T04:58:54.746Z,5.12
2024-03-11T04:59:57.634Z,4.75
2024-03-11T05:01:00.647Z,15.06
2024-03-11T05:02:03.745Z,4.12
2024-03-11T05:03:06.584Z,5.69
2024-03-11T05:04:09.540Z,6.06
2024-03-11T05:05:12.436Z,5.19
2024-03-11T05:06:15.589Z,4.69
2024-03-11T05:07:18.464Z,5.62
2024-03-11T05:08:21.452Z,4.81
2024-03-11T05:09:24.464Z,4.75
2024-03-11T05:10:27.710Z,4.62
2024-03-11T05:11:30.637Z,5.31
2024-03-11T05:12:33.606Z,5.44
2024-03-11T05:13:36.508Z,6.62
2024-03-11T05:14:39.507Z,5.50
2024-03-11T05:15:48.183Z,4.87
2024-03-11T05:16:52.706Z,4.44
2024-03-11T05:17:55.998Z,4.69
2024-03-11T05:18:59.111Z,18.62
2024-03-11T05:20:01.999Z,4.62
2024-03-11T05:21:05.037Z,9.50
2024-03-11T05:22:07.876Z,4.12
2024-03-11T05:23:10.751Z,5.69
2024-03-11T05:24:13.776Z,4.44
2024-03-11T05:25:17.371Z,3.69
2024-03-11T05:26:20.443Z,5.19
2024-03-11T05:27:23.338Z,1.62
2024-03-11T05:28:26.247Z,4.50
2024-03-11T05:29:29.211Z,4.25
2024-03-11T05:30:32.234Z,3.56
2024-03-11T05:31:35.271Z,4.19
2024-03-11T05:32:38.246Z,3.62
2024-03-11T05:33:41.079Z,13.53
2024-03-11T05:34:43.990Z,3.69
2024-03-11T05:35:46.991Z,6.31
2024-03-11T05:36:50.162Z,4.31
2024-03-11T05:37:52.974Z,4.50
2024-03-11T05:38:55.779Z,4.75
2024-03-11T05:39:58.584Z,4.12
2024-03-11T05:41:01.460Z,3.12
2024-03-11T05:42:04.316Z,5.06
2024-03-11T05:43:07.187Z,4.25
2024-03-11T05:44:11.517Z,4.37
2024-03-11T05:45:14.886Z,4.81
2024-03-11T05:46:17.828Z,3.81
2024-03-11T05:47:20.727Z,4.31
2024-03-11T05:48:23.638Z,4.31
2024-03-11T05:49:26.721Z,3.25
2024-03-11T05:50:31.506Z,4.87
2024-03-11T05:51:34.473Z,3.94
2024-03-11T05:52:37.260Z,4.44
2024-03-11T05:53:40.116Z,2.69
2024-03-11T05:54:43.076Z,4.94
2024-03-11T05:55:45.947Z,3.31
2024-03-11T05:56:48.945Z,4.50
2024-03-11T05:57:51.859Z,4.87
2024-03-11T05:58:54.717Z,5.12
2024-03-11T05:59:57.559Z,3.44
2024-03-11T06:01:00.705Z,5.31
2024-03-11T06:02:03.536Z,5.56
2024-03-11T06:03:06.491Z,5.81
2024-03-11T06:04:09.389Z,5.75
2024-03-11T06:05:12.223Z,6.33
2024-03-11T06:06:15.228Z,6.12
2024-03-11T06:07:19.402Z,5.44
2024-03-11T06:08:22.321Z,6.37
2024-03-11T06:09:26.008Z,5.25
2024-03-11T06:10:28.966Z,6.75
2024-03-11T06:11:31.912Z,7.44
2024-03-11T06:12:35.171Z,6.81
2024-03-11T06:13:37.957Z,0.31
2024-03-11T06:14:40.904Z,5.62
2024-03-11T06:15:43.744Z,7.50
2024-03-11T06:16:46.907Z,7.12
2024-03-11T06:17:50.305Z,6.25
2024-03-11T06:18:53.264Z,6.31
2024-03-11T06:19:56.155Z,6.25
2024-03-11T06:20:59.158Z,6.94
2024-03-11T06:22:02.122Z,6.37
2024-03-11T06:23:05.159Z,4.56
2024-03-11T06:24:08.086Z,3.69
2024-03-11T06:25:10.899Z,7.37
2024-03-11T06:26:13.951Z,7.44
2024-03-11T06:27:16.959Z,8.19
2024-03-11T06:28:19.799Z,7.19
2024-03-11T06:29:22.676Z,8.00
2024-03-11T06:30:25.656Z,8.81
2024-03-11T06:31:28.896Z,10.00
2024-03-11T06:32:32.067Z,9.44
2024-03-11T06:33:35.286Z,9.69
2024-03-11T06:34:38.149Z,10.06
2024-03-11T06:35:41.123Z,6.44
2024-03-11T06:36:44.136Z,8.06
2024-03-11T06:37:47.029Z,7.44
2024-03-11T06:38:49.948Z,8.31
2024-03-11T06:39:52.976Z,7.81
2024-03-11T06:40:57.433Z,8.31
2024-03-11T06:42:01.182Z,6.94
2024-03-11T06:43:04.236Z,6.69
2024-03-11T06:44:09.263Z,9.81
2024-03-11T06:45:11.597Z,9.88
2024-03-11T06:46:15.100Z,9.81
2024-03-11T06:47:17.979Z,7.56
2024-03-11T06:48:21.007Z,9.38
2024-03-11T06:49:24.415Z,8.19
2024-03-11T06:50:27.466Z,6.62
2024-03-11T06:51:30.374Z,8.25
2024-03-11T06:52:36.000Z,8.75
2024-03-11T06:53:39.368Z,10.63
2024-03-11T06:54:42.252Z,6.31
2024-03-11T06:55:45.104Z,7.31
2024-03-11T06:56:48.025Z,9.00
2024-03-11T06:57:50.881Z,10.19
2024-03-11T06:58:53.760Z,8.25
2024-03-11T06:59:56.872Z,7.44
2024-03-11T07:00:59.820Z,8.25
2024-03-11T07:02:03.024Z,9.94
2024-03-11T07:03:05.873Z,6.37
2024-03-11T07:04:08.979Z,7.56
2024-03-11T07:05:11.849Z,10.88
2024-03-11T07:06:15.017Z,10.31
2024-03-11T07:07:17.913Z,8.44
2024-03-11T07:09:49.591Z,9.38
2024-03-11T07:10:53.120Z,8.81
2024-03-11T07:11:56.332Z,6.12
2024-03-11T07:12:59.975Z,7.94
2024-03-11T07:14:02.796Z,8.63
2024-03-11T07:15:05.914Z,6.69
2024-03-11T07:16:09.284Z,8.31
2024-03-11T07:17:12.454Z,5.37
2024-03-11T07:18:16.373Z,9.31
2024-03-11T07:19:19.325Z,8.31
2024-03-11T07:20:22.300Z,8.94
2024-03-11T07:21:25.236Z,2.69
2024-03-11T07:22:28.027Z,6.12
2024-03-11T07:23:33.974Z,7.50
2024-03-11T07:24:35.329Z,8.19
2024-03-11T07:25:38.289Z,9.00
2024-03-11T07:26:42.860Z,7.00
2024-03-11T07:27:45.690Z,8.31
2024-03-11T07:28:48.518Z,9.13
2024-03-11T07:29:51.353Z,10.63
2024-03-11T07:30:54.706Z,9.00
2024-03-11T07:31:57.668Z,7.33
2024-03-11T07:33:05.266Z,8.94
2024-03-11T07:34:08.125Z,4.69
2024-03-11T07:35:10.948Z,5.81
2024-03-11T07:36:16.435Z,6.12
2024-03-11T07:37:19.292Z,8.56
2024-03-11T07:38:22.315Z,6.81
2024-03-11T07:39:25.416Z,8.94
2024-03-11T07:40:28.306Z,8.00
2024-03-11T07:41:31.170Z,7.31
2024-03-11T07:42:36.223Z,9.69
2024-03-11T07:43:39.459Z,8.75
2024-03-11T07:44:42.386Z,7.62
2024-03-11T07:45:45.486Z,7.87
2024-03-11T07:46:48.518Z,7.69
2024-03-11T07:47:51.416Z,6.44
2024-03-11T07:48:54.266Z,6.37
2024-03-11T07:49:57.156Z,5.69
2024-03-11T07:51:00.267Z,5.50
2024-03-11T07:52:03.207Z,6.25
2024-03-11T07:53:06.199Z,7.87
2024-03-11T07:54:09.059Z,6.37
2024-03-11T07:55:11.949Z,6.94
2024-03-11T07:56:14.954Z,6.62
2024-03-11T07:57:17.786Z,1.69
2024-03-11T07:58:20.570Z,6.12
2024-03-11T08:00:48.342Z,4.12
2024-03-11T08:01:57.202Z,7.19
2024-03-11T08:02:07.999Z,6.50
2024-03-11T08:03:00.447Z,6.31
2024-03-11T08:04:03.342Z,4.50
2024-03-11T08:05:06.259Z,6.56
2024-03-11T08:06:09.244Z,6.56
2024-03-11T08:07:12.008Z,7.62
2024-03-11T08:08:14.902Z,6.69
2024-03-11T08:09:17.755Z,6.87
2024-03-11T08:10:21.052Z,5.37
2024-03-11T08:11:24.136Z,5.31
2024-03-11T08:12:27.418Z,5.50
2024-03-11T08:13:30.249Z,4.94
2024-03-11T08:14:33.132Z,5.94
2024-03-11T08:15:36.008Z,5.94
2024-03-11T08:16:38.931Z,6.25
2024-03-11T08:17:42.416Z,7.25
2024-03-11T08:18:45.234Z,6.19
2024-03-11T08:19:48.026Z,7.19
2024-03-11T08:20:50.960Z,6.75
2024-03-11T08:21:53.825Z,5.31
2024-03-11T08:22:56.978Z,0.31
2024-03-11T08:23:59.926Z,6.44
2024-03-11T08:25:02.740Z,6.25
2024-03-11T08:26:06.389Z,6.31
2024-03-11T08:27:09.430Z,5.44
2024-03-11T08:28:12.513Z,6.25
2024-03-11T08:29:15.430Z,5.87
2024-03-11T08:30:18.549Z,4.19
2024-03-11T08:31:21.830Z,5.62
2024-03-11T08:32:25.789Z,6.19
2024-03-11T08:33:28.621Z,4.81
2024-03-11T08:34:42.783Z,5.00
2024-03-11T08:35:54.167Z,6.69
2024-03-11T08:36:57.223Z,4.94
2024-03-11T08:38:00.074Z,6.25
2024-03-11T08:39:02.952Z,5.06
2024-03-11T08:40:06.603Z,4.94
2024-03-11T08:41:09.601Z,5.69
2024-03-11T08:42:12.517Z,6.25
2024-03-11T08:43:15.430Z,5.94
2024-03-11T08:44:18.405Z,4.12
2024-03-11T08:45:21.281Z,4.37
2024-03-11T08:46:24.245Z,2.94
2024-03-11T08:47:27.136Z,5.44
2024-03-11T08:48:30.077Z,5.44
2024-03-11T08:49:32.910Z,6.06
2024-03-11T08:50:35.827Z,5.44
2024-03-11T08:51:39.094Z,6.31
2024-03-11T08:52:42.014Z,7.19
2024-03-11T08:53:44.939Z,5.56
2024-03-11T08:54:47.729Z,6.60
2024-03-11T08:55:50.545Z,6.62
2024-03-11T08:56:53.400Z,5.81
2024-03-11T08:57:56.247Z,6.62
2024-03-11T08:58:59.133Z,6.06
2024-03-11T09:00:02.082Z,6.37
2024-03-11T09:01:05.057Z,5.75
2024-03-11T09:02:07.893Z,5.87
2024-03-11T09:03:10.731Z,4.94
2024-03-11T09:04:13.639Z,6.87
2024-03-11T09:05:16.568Z,6.62
2024-03-11T09:06:19.826Z,6.62
2024-03-11T09:07:22.613Z,7.25
2024-03-11T09:08:25.485Z,6.56
2024-03-11T09:09:28.310Z,4.75
2024-03-11T09:10:31.459Z,6.31
2024-03-11T09:11:34.355Z,6.06
2024-03-11T09:12:37.320Z,6.25
2024-03-11T09:13:40.179Z,6.12
2024-03-11T09:14:43.311Z,6.56
2024-03-11T09:15:46.593Z,6.62
2024-03-11T09:16:49.603Z,5.94
2024-03-11T09:17:53.334Z,6.31
2024-03-11T09:18:56.831Z,5.81
2024-03-11T09:19:59.677Z,7.00
2024-03-11T09:21:02.545Z,7.06
2024-03-11T09:22:05.543Z,7.25
2024-03-11T09:23:08.484Z,5.37
2024-03-11T09:24:11.443Z,6.00
2024-03-11T09:25:14.998Z,6.87
2024-03-11T09:26:18.015Z,6.44
2024-03-11T09:27:20.856Z,6.37
2024-03-11T09:28:23.741Z,4.44
2024-03-11T09:29:26.716Z,5.19
2024-03-11T09:30:30.387Z,6.31
2024-03-11T09:31:33.377Z,5.87
2024-03-11T09:32:36.149Z,5.25
2024-03-11T09:33:39.058Z,5.19
2024-03-11T09:34:41.965Z,5.75
2024-03-11T09:35:44.841Z,6.87
2024-03-11T09:36:49.551Z,6.60
2024-03-11T09:37:52.983Z,7.12
2024-03-11T09:38:55.844Z,5.62
2024-03-11T09:39:58.702Z,4.06
2024-03-11T09:41:03.201Z,6.25
2024-03-11T09:42:07.538Z,4.94
2024-03-11T09:43:11.845Z,4.87
2024-03-11T09:44:18.675Z,3.87
2024-03-11T09:45:20.794Z,5.19
2024-03-11T09:46:23.828Z,4.62
2024-03-11T09:47:26.898Z,7.19
2024-03-11T09:48:33.209Z,6.75
2024-03-11T09:49:43.387Z,5.12
2024-03-11T09:50:43.646Z,5.31
2024-03-11T09:51:52.073Z,5.31
2024-03-11T09:53:10.367Z,5.81
2024-03-11T09:54:14.294Z,4.75
2024-03-11T09:55:17.694Z,6.75
2024-03-11T09:56:21.262Z,3.37
2024-03-11T09:57:24.122Z,3.31
2024-03-11T09:58:27.622Z,5.75
2024-03-11T09:59:30.719Z,5.06
2024-03-11T10:00:40.616Z,6.06
2024-03-11T10:01:40.750Z,4.37
2024-03-11T10:02:45.105Z,7.50
2024-03-11T10:03:48.359Z,5.69
2024-03-11T10:04:51.618Z,5.37
2024-03-11T10:05:58.457Z,6.69
2024-03-11T10:07:03.227Z,3.56
2024-03-11T10:08:06.196Z,3.81
2024-03-11T10:09:14.248Z,5.44
2024-03-11T10:10:18.558Z,5.00
2024-03-11T10:11:23.156Z,5.62
2024-03-11T10:12:26.455Z,3.50
2024-03-11T10:15:07.875Z,4.69
2024-03-11T10:16:12.013Z,5.19
2024-03-11T10:17:25.783Z,5.19
2024-03-11T10:18:30.413Z,4.81
2024-03-11T10:19:34.861Z,5.19
2024-03-11T10:20:38.019Z,6.12
2024-03-11T10:21:41.658Z,6.31
2024-03-11T10:22:44.541Z,5.12
2024-03-11T10:23:47.706Z,5.44
2024-03-11T10:24:52.073Z,5.56
2024-03-11T10:25:56.431Z,5.87
2024-03-11T10:26:59.411Z,5.00
2024-03-11T10:28:03.657Z,4.81
2024-03-11T10:29:06.561Z,3.87
2024-03-11T10:30:17.600Z,4.50
2024-03-11T10:31:22.021Z,5.75
2024-03-11T10:32:34.751Z,1.62
2024-03-11T10:33:37.736Z,4.75
2024-03-11T10:34:56.367Z,5.06
2024-03-11T10:36:08.649Z,5.37
2024-03-11T10:37:11.499Z,6.37
2024-03-11T10:38:14.257Z,5.12
2024-03-11T10:39:17.173Z,4.50
2024-03-11T10:40:21.550Z,5.37
2024-03-11T10:41:25.959Z,6.31
2024-03-11T10:42:29.225Z,6.75
2024-03-11T10:43:32.324Z,4.56
2024-03-11T10:44:36.057Z,4.12
2024-03-11T10:45:38.890Z,5.81
2024-03-11T10:46:42.471Z,6.56
2024-03-11T10:47:46.598Z,5.75
2024-03-11T10:48:50.145Z,7.12
2024-03-11T10:49:53.573Z,7.00
2024-03-11T10:50:58.008Z,6.37
2024-03-11T10:52:02.392Z,5.44
2024-03-11T10:53:07.024Z,5.75
2024-03-11T10:54:25.857Z,4.37
2024-03-11T10:55:20.498Z,5.56
2024-03-11T10:56:23.476Z,4.62
2024-03-11T10:57:39.365Z,5.75
2024-03-11T10:58:44.098Z,4.75
2024-03-11T10:59:48.611Z,3.87
2024-03-11T11:00:52.502Z,2.94
2024-03-11T11:01:56.405Z,5.00
2024-03-11T11:03:03.572Z,3.94
2024-03-11T11:04:07.457Z,4.37
2024-03-11T11:05:10.580Z,3.87
2024-03-11T11:06:15.096Z,3.62
2024-03-11T11:07:18.013Z,3.75
2024-03-11T11:08:20.958Z,4.37
2024-03-11T11:09:23.821Z,4.69
2024-03-11T11:10:27.337Z,4.06
2024-03-11T11:11:30.281Z,4.37
2024-03-11T11:12:33.160Z,4.44
2024-03-11T11:13:36.700Z,4.81
2024-03-11T11:14:39.588Z,4.19
2024-03-11T11:15:42.474Z,5.31
2024-03-11T11:16:45.680Z,2.62
2024-03-11T11:17:48.709Z,4.19
2024-03-11T11:18:51.694Z,4.50
2024-03-11T11:19:55.156Z,4.81
2024-03-11T11:20:58.286Z,4.25
2024-03-11T11:22:04.959Z,5.12
2024-03-11T11:23:07.742Z,4.87
2024-03-11T11:24:18.142Z,5.19
2024-03-11T11:25:39.127Z,7.81
2024-03-11T11:26:42.384Z,3.31
2024-03-11T11:27:48.070Z,4.75
2024-03-11T11:28:52.398Z,5.69
2024-03-11T11:29:56.719Z,4.56
2024-03-11T11:31:09.661Z,4.69
2024-03-11T11:32:12.827Z,4.31
2024-03-11T11:33:26.322Z,4.81
2024-03-11T11:34:48.604Z,5.19
2024-03-11T11:35:51.419Z,4.69
2024-03-11T11:36:57.472Z,5.25
2024-03-11T11:38:01.884Z,3.87
2024-03-11T11:39:12.287Z,4.37
2024-03-11T11:40:28.192Z,4.56
2024-03-11T11:41:37.365Z,6.69
2024-03-11T11:42:40.960Z,5.25
2024-03-11T11:43:44.948Z,5.12
2024-03-11T11:44:48.525Z,5.62
2024-03-11T11:45:52.356Z,3.87
2024-03-11T11:46:57.065Z,3.94
2024-03-11T11:48:01.477Z,5.00
2024-03-11T11:49:20.471Z,5.50
2024-03-11T11:50:30.607Z,6.50
2024-03-11T11:51:33.640Z,4.75
2024-03-11T11:52:39.023Z,6.31
2024-03-11T11:53:46.076Z,5.25
2024-03-11T11:54:46.946Z,5.56
2024-03-11T11:55:49.789Z,4.25
2024-03-11T11:57:06.404Z,5.62
2024-03-11T11:58:10.068Z,5.62
2024-03-11T11:59:14.622Z,5.62
2024-03-11T12:00:21.685Z,5.62
2024-03-11T12:01:22.725Z,3.31
2024-03-11T12:02:29.820Z,4.56
2024-03-11T12:03:34.231Z,5.19
2024-03-11T12:04:37.296Z,4.81
2024-03-11T12:05:40.142Z,4.62
2024-03-11T12:06:43.081Z,5.69
2024-03-11T12:07:45.927Z,4.75
2024-03-11T12:08:48.827Z,5.37
2024-03-11T12:09:58.489Z,4.37
2024-03-11T12:11:03.274Z,5.31
2024-03-11T12:12:07.670Z,5.19
2024-03-11T12:13:11.964Z,6.37
2024-03-11T12:14:14.867Z,7.00
2024-03-11T12:15:18.547Z,5.56
2024-03-11T12:16:22.900Z,6.00
2024-03-11T12:17:25.769Z,4.44
2024-03-11T12:18:28.700Z,5.31
2024-03-11T12:19:31.564Z,6.81
2024-03-11T12:20:35.454Z,3.00
2024-03-11T12:21:44.786Z,6.12
2024-03-11T12:22:49.004Z,6.06
2024-03-11T12:23:51.960Z,4.12
2024-03-11T12:24:56.353Z,3.50
2024-03-11T12:26:00.628Z,6.69
2024-03-11T12:27:03.895Z,7.69
2024-03-11T12:28:08.297Z,5.31
2024-03-11T12:29:14.690Z,7.94
2024-03-11T12:30:17.745Z,6.37
2024-03-11T12:31:20.606Z,5.37
2024-03-11T12:32:23.484Z,6.62
2024-03-11T12:33:26.546Z,7.31
2024-03-11T12:34:29.676Z,6.00
2024-03-11T12:35:33.649Z,6.25
2024-03-11T12:36:40.650Z,4.31
2024-03-11T12:37:45.026Z,5.40
2024-03-11T12:38:48.321Z,6.69
2024-03-11T12:39:51.414Z,6.25
2024-03-11T12:40:54.288Z,7.06
2024-03-11T12:41:57.763Z,6.06
2024-03-11T12:43:03.061Z,7.31
2024-03-11T12:44:13.282Z,6.00
2024-03-11T12:45:17.638Z,6.25
2024-03-11T12:46:20.575Z,8.25
2024-03-11T12:47:24.139Z,6.62
2024-03-11T12:48:27.726Z,7.56
2024-03-11T12:49:32.432Z,5.06
2024-03-11T12:50:35.333Z,6.81
2024-03-11T12:51:38.675Z,7.69
2024-03-11T12:52:42.758Z,7.56
2024-03-11T12:53:45.958Z,8.38
2024-03-11T12:54:48.818Z,8.56
2024-03-11T12:56:05.494Z,7.94
2024-03-11T12:57:12.623Z,8.94
2024-03-11T12:58:16.575Z,5.94
2024-03-11T12:59:20.012Z,7.50
2024-03-11T13:00:25.570Z,9.00
2024-03-11T13:01:27.430Z,6.37
2024-03-11T13:02:30.311Z,7.81
2024-03-11T13:03:33.398Z,9.81
2024-03-11T13:04:36.311Z,8.44
2024-03-11T13:05:58.571Z,6.87
2024-03-11T13:07:05.705Z,7.12
2024-03-11T13:08:09.367Z,5.94
2024-03-11T13:09:21.589Z,6.94
2024-03-11T13:10:25.758Z,10.75
2024-03-11T13:11:28.658Z,5.75
2024-03-11T13:12:31.590Z,12.44
2024-03-11T13:13:34.536Z,5.87
2024-03-11T13:14:37.449Z,8.13
2024-03-11T13:15:40.368Z,8.69
2024-03-11T13:16:43.392Z,6.37
2024-03-11T13:17:47.727Z,6.69
2024-03-11T13:18:54.801Z,8.19
2024-03-11T13:19:54.950Z,7.94
2024-03-11T13:20:59.419Z,9.13
2024-03-11T13:22:02.372Z,8.63
2024-03-11T13:23:08.341Z,8.63
2024-03-11T13:24:11.224Z,10.19
2024-03-11T13:25:14.135Z,11.69
2024-03-11T13:26:17.050Z,10.06
2024-03-11T13:27:20.472Z,13.50
2024-03-11T13:28:23.413Z,9.56
2024-03-11T13:29:26.290Z,8.69
2024-03-11T13:30:29.680Z,10.06
2024-03-11T13:31:33.280Z,8.13
2024-03-11T13:32:36.185Z,10.31
2024-03-11T13:33:39.086Z,11.44
2024-03-11T13:34:42.237Z,11.12
2024-03-11T13:35:45.134Z,8.38
2024-03-11T13:36:48.170Z,8.19
2024-03-11T13:37:51.156Z,12.00
2024-03-11T13:38:54.043Z,11.06
2024-03-11T13:39:56.887Z,12.00
2024-03-11T13:40:59.906Z,12.25
2024-03-11T13:42:03.564Z,11.12
2024-03-11T13:43:06.504Z,9.13
2024-03-11T13:44:09.374Z,9.63
2024-03-11T13:45:12.387Z,10.25
2024-03-11T13:46:16.212Z,6.81
2024-03-11T13:47:24.176Z,7.12
2024-03-11T13:48:27.245Z,9.38
2024-03-11T13:49:30.490Z,9.44
2024-03-11T13:50:33.535Z,9.44
2024-03-11T13:51:36.475Z,10.75
2024-03-11T13:52:39.413Z,9.88
2024-03-11T13:53:42.397Z,9.00
2024-03-11T13:54:45.273Z,9.81
2024-03-11T13:55:49.703Z,11.06
2024-03-11T13:56:52.591Z,11.44
2024-03-11T13:57:55.430Z,11.38
2024-03-11T13:58:58.912Z,11.69
2024-03-11T14:00:01.942Z,10.75
2024-03-11T14:01:08.901Z,11.44
2024-03-11T14:02:14.943Z,12.75
2024-03-11T14:03:18.033Z,7.12
2024-03-11T14:04:21.640Z,9.25
2024-03-11T14:05:27.521Z,13.62
2024-03-11T14:06:37.029Z,14.13
2024-03-11T14:07:41.353Z,12.44
2024-03-11T14:08:44.681Z,14.06
2024-03-11T14:09:47.661Z,15.81